sensor_id;sensor_type;location;lat;lon;timestamp;temperature;humidity
7248;DHT22;3665;51.034;13.642;2024-02-21T00:02:56;6.80;1.00
7248;DHT22;3665;51.034;13.642;2024-02-21T00:07:42;6.90;1.00
7248;DHT22;3665;51.034;13.642;2024-02-21T00:12:29;6.90;1.00
7248;DHT22;3665;51.034;13.642;2024-02-21T00:17:17;6.90;1.00
7248;DHT22;3665;51.034;13.642;2024-02-21T00:22:07;6.90;1.00
7248;DHT22;3665;51.034;13.642;2024-02-21T00:26:54;6.90;1.00
7248;DHT22;3665;51.034;13.642;2024-02-21T00:31:47;6.80;1.00
7248;DHT22;3665;51.034;13.642;2024-02-21T00:36:33;6.80;1.00
7248;DHT22;3665;51.034;13.642;2024-02-21T00:41:17;6.80;1.00
7248;DHT22;3665;51.034;13.642;2024-02-21T00:46:06;6.80;1.00
7248;DHT22;3665;51.034;13.642;2024-02-21T00:50:55;6.80;1.00
7248;DHT22;3665;51.034;13.642;2024-02-21T00:55:44;6.70;1.00
7248;DHT22;3665;51.034;13.642;2024-02-21T01:00:31;6.90;1.00
7248;DHT22;3665;51.034;13.642;2024-02-21T01:05:21;6.80;1.00
7248;DHT22;3665;51.034;13.642;2024-02-21T01:10:08;6.90;1.00
7248;DHT22;3665;51.034;13.642;2024-02-21T01:15:12;6.70;1.00
7248;DHT22;3665;51.034;13.642;2024-02-21T01:20:02;6.70;1.00
7248;DHT22;3665;51.034;13.642;2024-02-21T01:24:48;6.70;1.00
7248;DHT22;3665;51.034;13.642;2024-02-21T01:29:36;6.70;1.00
7248;DHT22;3665;51.034;13.642;2024-02-21T01:34:48;6.70;1.00
7248;DHT22;3665;51.034;13.642;2024-02-21T01:39:44;6.60;1.00
7248;DHT22;3665;51.034;13.642;2024-02-21T01:44:30;6.70;1.00
7248;DHT22;3665;51.034;13.642;2024-02-21T01:49:19;6.80;1.00
7248;DHT22;3665;51.034;13.642;2024-02-21T01:54:07;6.80;1.00
7248;DHT22;3665;51.034;13.642;2024-02-21T01:58:56;6.50;1.00
7248;DHT22;3665;51.034;13.642;2024-02-21T02:03:43;6.50;1.00
7248;DHT22;3665;51.034;13.642;2024-02-21T02:08:31;6.50;1.00
7248;DHT22;3665;51.034;13.642;2024-02-21T02:13:19;6.40;1.00
7248;DHT22;3665;51.034;13.642;2024-02-21T02:18:09;6.50;1.00
7248;DHT22;3665;51.034;13.642;2024-02-21T02:22:54;6.60;1.00
7248;DHT22;3665;51.034;13.642;2024-02-21T02:27:43;6.60;1.00
7248;DHT22;3665;51.034;13.642;2024-02-21T02:32:30;6.70;1.00
7248;DHT22;3665;51.034;13.642;2024-02-21T02:37:20;6.70;1.00
7248;DHT22;3665;51.034;13.642;2024-02-21T02:42:06;6.60;1.00
7248;DHT22;3665;51.034;13.642;2024-02-21T02:47:09;6.80;1.00
7248;DHT22;3665;51.034;13.642;2024-02-21T02:52:03;6.70;1.00
7248;DHT22;3665;51.034;13.642;2024-02-21T02:56:46;6.70;1.00
7248;DHT22;3665;51.034;13.642;2024-02-21T03:01:33;6.80;1.00
7248;DHT22;3665;51.034;13.642;2024-02-21T03:06:26;6.60;1.00
7248;DHT22;3665;51.034;13.642;2024-02-21T03:11:10;6.50;1.00
7248;DHT22;3665;51.034;13.642;2024-02-21T03:15:54;6.50;1.00
7248;DHT22;3665;51.034;13.642;2024-02-21T03:20:40;6.50;1.00
7248;DHT22;3665;51.034;13.642;2024-02-21T03:25:36;6.60;1.00
7248;DHT22;3665;51.034;13.642;2024-02-21T03:30:22;6.50;1.00
7248;DHT22;3665;51.034;13.642;2024-02-21T03:35:06;6.60;1.00
7248;DHT22;3665;51.034;13.642;2024-02-21T03:39:50;6.60;1.00
7248;DHT22;3665;51.034;13.642;2024-02-21T03:44:47;6.70;1.00
7248;DHT22;3665;51.034;13.642;2024-02-21T03:49:35;6.60;1.00
7248;DHT22;3665;51.034;13.642;2024-02-21T03:54:21;6.70;1.00
7248;DHT22;3665;51.034;13.642;2024-02-21T03:59:07;6.80;1.00
7248;DHT22;3665;51.034;13.642;2024-02-21T04:04:23;6.70;1.00
7248;DHT22;3665;51.034;13.642;2024-02-21T04:16:49;6.80;1.00
7248;DHT22;3665;51.034;13.642;2024-02-21T04:58:44;6.60;1.00
7248;DHT22;3665;51.034;13.642;2024-02-21T05:19:15;6.60;1.00
7248;DHT22;3665;51.034;13.642;2024-02-21T05:24:07;6.60;1.00
7248;DHT22;3665;51.034;13.642;2024-02-21T05:43:52;6.60;1.00
7248;DHT22;3665;51.034;13.642;2024-02-21T05:50:31;6.70;1.00
7248;DHT22;3665;51.034;13.642;2024-02-21T06:16:58;6.50;1.00
7248;DHT22;3665;51.034;13.642;2024-02-21T06:23:56;6.50;1.00
7248;DHT22;3665;51.034;13.642;2024-02-21T06:50:01;6.40;1.00
7248;DHT22;3665;51.034;13.642;2024-02-21T07:28:22;6.90;1.00
7248;DHT22;3665;51.034;13.642;2024-02-21T07:34:35;6.90;1.00
7248;DHT22;3665;51.034;13.642;2024-02-21T08:28:25;8.60;1.00
7248;DHT22;3665;51.034;13.642;2024-02-21T08:35:33;8.60;1.00
7248;DHT22;3665;51.034;13.642;2024-02-21T08:40:25;8.60;1.00
7248;DHT22;3665;51.034;13.642;2024-02-21T08:58:21;8.40;1.00
7248;DHT22;3665;51.034;13.642;2024-02-21T09:10:44;9.10;1.00
7248;DHT22;3665;51.034;13.642;2024-02-21T09:15:50;9.00;1.00
7248;DHT22;3665;51.034;13.642;2024-02-21T09:59:47;8.50;1.00
7248;DHT22;3665;51.034;13.642;2024-02-21T10:11:06;8.50;1.00
7248;DHT22;3665;51.034;13.642;2024-02-21T10:16:07;8.70;1.00
7248;DHT22;3665;51.034;13.642;2024-02-21T10:21:00;8.70;1.00
7248;DHT22;3665;51.034;13.642;2024-02-21T10:26:04;8.70;1.00
7248;DHT22;3665;51.034;13.642;2024-02-21T10:31:00;9.00;1.00
7248;DHT22;3665;51.034;13.642;2024-02-21T10:35:49;9.10;1.00
7248;DHT22;3665;51.034;13.642;2024-02-21T10:40:33;9.10;1.00
7248;DHT22;3665;51.034;13.642;2024-02-21T10:45:19;9.00;1.00
7248;DHT22;3665;51.034;13.642;2024-02-21T10:50:12;9.00;1.00
7248;DHT22;3665;51.034;13.642;2024-02-21T10:55:03;8.90;1.00
7248;DHT22;3665;51.034;13.642;2024-02-21T10:59:48;9.10;1.00
7248;DHT22;3665;51.034;13.642;2024-02-21T11:04:33;8.70;1.00
7248;DHT22;3665;51.034;13.642;2024-02-21T11:09:19;8.90;1.00
7248;DHT22;3665;51.034;13.642;2024-02-21T11:14:20;9.10;1.00
7248;DHT22;3665;51.034;13.642;2024-02-21T11:19:18;9.30;1.00
7248;DHT22;3665;51.034;13.642;2024-02-21T11:24:03;9.40;1.00
7248;DHT22;3665;51.034;13.642;2024-02-21T11:28:56;9.40;1.00
7248;DHT22;3665;51.034;13.642;2024-02-21T11:33:43;9.40;1.00
7248;DHT22;3665;51.034;13.642;2024-02-21T11:38:27;9.50;1.00
7248;DHT22;3665;51.034;13.642;2024-02-21T11:43:11;9.80;1.00
7248;DHT22;3665;51.034;13.642;2024-02-21T11:48:05;10.10;1.00
7248;DHT22;3665;51.034;13.642;2024-02-21T11:52:58;9.80;1.00
7248;DHT22;3665;51.034;13.642;2024-02-21T11:57:48;9.60;1.00
7248;DHT22;3665;51.034;13.642;2024-02-21T12:02:44;9.80;1.00
7248;DHT22;3665;51.034;13.642;2024-02-21T12:07:32;10.00;1.00
7248;DHT22;3665;51.034;13.642;2024-02-21T12:12:21;10.10;1.00
7248;DHT22;3665;51.034;13.642;2024-02-21T12:17:07;10.20;1.00
7248;DHT22;3665;51.034;13.642;2024-02-21T12:21:51;10.20;1.00
7248;DHT22;3665;51.034;13.642;2024-02-21T12:26:36;10.20;1.00
7248;DHT22;3665;51.034;13.642;2024-02-21T12:31:33;10.50;1.00
7248;DHT22;3665;51.034;13.642;2024-02-21T12:36:17;11.00;1.00
7248;DHT22;3665;51.034;13.642;2024-02-21T12:41:01;11.50;1.00
7248;DHT22;3665;51.034;13.642;2024-02-21T12:45:58;11.80;1.00
7248;DHT22;3665;51.034;13.642;2024-02-21T12:50:47;11.80;1.00
7248;DHT22;3665;51.034;13.642;2024-02-21T12:55:31;11.50;1.00
7248;DHT22;3665;51.034;13.642;2024-02-21T13:00:16;11.40;1.00
7248;DHT22;3665;51.034;13.642;2024-02-21T13:05:04;11.40;1.00
7248;DHT22;3665;51.034;13.642;2024-02-21T13:09:55;11.60;1.00
7248;DHT22;3665;51.034;13.642;2024-02-21T13:14:39;11.70;1.00
7248;DHT22;3665;51.034;13.642;2024-02-21T13:19:32;11.90;1.00
7248;DHT22;3665;51.034;13.642;2024-02-21T13:24:21;11.90;1.00
7248;DHT22;3665;51.034;13.642;2024-02-21T13:29:07;11.90;1.00
7248;DHT22;3665;51.034;13.642;2024-02-21T13:33:57;11.90;1.00
7248;DHT22;3665;51.034;13.642;2024-02-21T13:38:47;11.50;1.00
7248;DHT22;3665;51.034;13.642;2024-02-21T13:43:32;11.80;1.00
7248;DHT22;3665;51.034;13.642;2024-02-21T13:48:20;11.80;1.00
7248;DHT22;3665;51.034;13.642;2024-02-21T13:53:05;11.80;1.00
7248;DHT22;3665;51.034;13.642;2024-02-21T13:57:56;12.00;1.00
7248;DHT22;3665;51.034;13.642;2024-02-21T14:02:46;12.10;1.00
7248;DHT22;3665;51.034;13.642;2024-02-21T14:07:31;12.20;1.00
7248;DHT22;3665;51.034;13.642;2024-02-21T14:12:15;12.10;1.00
7248;DHT22;3665;51.034;13.642;2024-02-21T14:17:04;12.00;1.00
7248;DHT22;3665;51.034;13.642;2024-02-21T14:21:50;11.90;1.00
7248;DHT22;3665;51.034;13.642;2024-02-21T14:26:47;11.90;1.00
7248;DHT22;3665;51.034;13.642;2024-02-21T14:31:31;11.80;1.00
7248;DHT22;3665;51.034;13.642;2024-02-21T14:36:21;11.80;1.00
7248;DHT22;3665;51.034;13.642;2024-02-21T14:41:08;11.80;1.00
7248;DHT22;3665;51.034;13.642;2024-02-21T14:45:55;11.90;1.00
7248;DHT22;3665;51.034;13.642;2024-02-21T14:50:41;11.80;1.00
7248;DHT22;3665;51.034;13.642;2024-02-21T14:55:25;11.80;1.00
7248;DHT22;3665;51.034;13.642;2024-02-21T15:00:13;11.90;1.00
7248;DHT22;3665;51.034;13.642;2024-02-21T15:05:09;11.70;1.00
7248;DHT22;3665;51.034;13.642;2024-02-21T15:09:54;11.60;1.00
7248;DHT22;3665;51.034;13.642;2024-02-21T15:14:39;11.30;1.00
7248;DHT22;3665;51.034;13.642;2024-02-21T15:19:25;11.30;1.00
7248;DHT22;3665;51.034;13.642;2024-02-21T15:24:12;11.20;1.00
7248;DHT22;3665;51.034;13.642;2024-02-21T15:28:56;11.30;1.00
7248;DHT22;3665;51.034;13.642;2024-02-21T15:33:39;11.00;1.00
7248;DHT22;3665;51.034;13.642;2024-02-21T15:38:26;10.80;1.00
7248;DHT22;3665;51.034;13.642;2024-02-21T15:43:19;10.60;1.00
7248;DHT22;3665;51.034;13.642;2024-02-21T15:48:03;10.30;1.00
7248;DHT22;3665;51.034;13.642;2024-02-21T15:52:53;10.00;1.00
7248;DHT22;3665;51.034;13.642;2024-02-21T15:57:42;9.70;1.00
7248;DHT22;3665;51.034;13.642;2024-02-21T16:02:27;9.30;1.00
7248;DHT22;3665;51.034;13.642;2024-02-21T16:07:20;8.90;1.00
7248;DHT22;3665;51.034;13.642;2024-02-21T16:12:04;8.80;1.00
7248;DHT22;3665;51.034;13.642;2024-02-21T16:16:52;8.50;1.00
7248;DHT22;3665;51.034;13.642;2024-02-21T16:21:41;8.30;1.00
7248;DHT22;3665;51.034;13.642;2024-02-21T16:26:30;8.00;1.00
7248;DHT22;3665;51.034;13.642;2024-02-21T16:31:17;7.90;1.00
7248;DHT22;3665;51.034;13.642;2024-02-21T16:36:04;7.60;1.00
7248;DHT22;3665;51.034;13.642;2024-02-21T16:46:15;7.10;1.00
7248;DHT22;3665;51.034;13.642;2024-02-21T16:51:01;7.00;1.00
7248;DHT22;3665;51.034;13.642;2024-02-21T16:55:49;7.00;1.00
7248;DHT22;3665;51.034;13.642;2024-02-21T17:00:35;7.10;1.00
7248;DHT22;3665;51.034;13.642;2024-02-21T17:05:25;7.00;1.00
7248;DHT22;3665;51.034;13.642;2024-02-21T17:10:11;7.10;1.00
7248;DHT22;3665;51.034;13.642;2024-02-21T17:15:18;7.00;1.00
7248;DHT22;3665;51.034;13.642;2024-02-21T17:21:38;6.60;1.00
7248;DHT22;3665;51.034;13.642;2024-02-21T17:27:56;6.20;1.00
7248;DHT22;3665;51.034;13.642;2024-02-21T17:34:00;5.80;1.00
7248;DHT22;3665;51.034;13.642;2024-02-21T17:55:32;5.00;1.00
7248;DHT22;3665;51.034;13.642;2024-02-21T18:02:45;4.80;1.00
7248;DHT22;3665;51.034;13.642;2024-02-21T19:31:24;6.10;1.00
7248;DHT22;3665;51.034;13.642;2024-02-21T19:49:33;6.70;1.00
7248;DHT22;3665;51.034;13.642;2024-02-21T19:55:39;6.80;1.00
7248;DHT22;3665;51.034;13.642;2024-02-21T20:20:22;7.00;1.00
7248;DHT22;3665;51.034;13.642;2024-02-21T21:06:15;6.80;1.00
7248;DHT22;3665;51.034;13.642;2024-02-21T21:12:22;7.10;1.00
7248;DHT22;3665;51.034;13.642;2024-02-21T22:04:27;6.80;1.00
7248;DHT22;3665;51.034;13.642;2024-02-21T22:10:30;7.10;1.00
7248;DHT22;3665;51.034;13.642;2024-02-21T22:35:54;8.00;1.00
7248;DHT22;3665;51.034;13.642;2024-02-21T22:49:15;8.80;1.00
7248;DHT22;3665;51.034;13.642;2024-02-21T23:00:26;9.40;1.00
7248;DHT22;3665;51.034;13.642;2024-02-21T23:05:29;9.60;1.00
7248;DHT22;3665;51.034;13.642;2024-02-21T23:11:59;9.70;1.00
7248;DHT22;3665;51.034;13.642;2024-02-21T23:19:22;9.80;1.00
7248;DHT22;3665;51.034;13.642;2024-02-21T23:23:53;9.90;1.00
7248;DHT22;3665;51.034;13.642;2024-02-21T23:28:41;9.90;1.00
7248;DHT22;3665;51.034;13.642;2024-02-21T23:33:26;9.90;1.00
7248;DHT22;3665;51.034;13.642;2024-02-21T23:38:16;9.90;1.00
7248;DHT22;3665;51.034;13.642;2024-02-21T23:43:03;10.00;1.00
7248;DHT22;3665;51.034;13.642;2024-02-21T23:47:47;10.00;1.00
7248;DHT22;3665;51.034;13.642;2024-02-21T23:52:41;10.10;1.00
7248;DHT22;3665;51.034;13.642;2024-02-21T23:57:28;10.00;1.00
